Time;durP1;ratioP1;P1;durP2;ratioP2;P2;SDS_P1;SDS_P2;PMS_P1;PMS_P2;Temp;Humidity;BMP_temperature;BMP_pressure;BME280_temperature;BME280_humidity;BME280_pressure;Samples;Min_cycle;Max_cycle;Signal;HPM_P1;HPM_P2
2022/07/11 00:02:25;;;;;;;147.52;133.07;;;17.10;98.00;;;;;;5013029;28;20054;-73
2022/07/11 00:04:52;;;;;;;143.13;129.18;;;17.10;98.00;;;;;;5044265;28;20081;-74
2022/07/11 00:07:18;;;;;;;151.90;137.00;;;17.00;98.00;;;;;;5012180;28;20058;-73
2022/07/11 00:09:46;;;;;;;149.18;134.77;;;17.00;98.00;;;;;;5011740;28;20056;-74
2022/07/11 00:12:13;;;;;;;150.10;135.50;;;17.00;98.00;;;;;;5011482;28;20054;-74
2022/07/11 00:14:42;;;;;;;147.77;133.57;;;17.00;98.20;;;;;;5012180;28;20076;-74
2022/07/11 00:17:10;;;;;;;148.07;133.95;;;16.90;98.20;;;;;;5011274;28;20050;-74
2022/07/11 00:19:37;;;;;;;143.60;129.80;;;16.90;98.40;;;;;;5012487;28;20046;-74
2022/07/11 00:22:05;;;;;;;142.88;129.15;;;16.90;98.30;;;;;;5010932;28;20270;-73
2022/07/11 00:24:32;;;;;;;139.27;126.32;;;16.90;98.30;;;;;;5012692;28;20406;-74
2022/07/11 00:26:59;;;;;;;139.85;126.90;;;16.90;98.40;;;;;;5014495;28;20505;-73
2022/07/11 00:29:26;;;;;;;141.32;128.10;;;16.80;98.40;;;;;;5014464;28;20054;-74
2022/07/11 00:31:55;;;;;;;140.90;127.90;;;16.80;98.50;;;;;;5014369;28;20058;-74
2022/07/11 00:34:21;;;;;;;141.93;128.52;;;16.80;98.60;;;;;;5015481;28;20058;-74
2022/07/11 00:36:48;;;;;;;142.57;129.20;;;16.80;98.60;;;;;;5014667;28;20046;-74
2022/07/11 00:39:15;;;;;;;142.27;128.45;;;16.80;98.70;;;;;;5014134;28;20061;-74
2022/07/11 00:41:42;;;;;;;138.25;125.45;;;16.80;98.70;;;;;;5047735;28;20484;-74
2022/07/11 00:44:09;;;;;;;138.18;125.03;;;16.80;98.70;;;;;;5014377;28;20047;-74
2022/07/11 00:46:36;;;;;;;139.23;126.18;;;16.80;98.70;;;;;;5015516;28;20141;-73
2022/07/11 00:49:05;;;;;;;139.65;126.35;;;16.80;98.80;;;;;;5015276;28;20043;-74
2022/07/11 00:51:32;;;;;;;138.77;125.85;;;16.80;98.90;;;;;;5014209;28;20059;-74
2022/07/11 00:54:01;;;;;;;139.05;126.15;;;16.70;98.90;;;;;;5015359;28;20145;-74
2022/07/11 00:56:30;;;;;;;138.13;125.38;;;16.80;98.90;;;;;;5015642;28;20185;-74
2022/07/11 00:58:58;;;;;;;139.40;126.00;;;16.70;98.90;;;;;;5015315;28;20054;-74
2022/07/11 01:01:26;;;;;;;139.77;126.53;;;16.70;99.00;;;;;;5014025;28;20510;-73
2022/07/11 01:03:53;;;;;;;139.52;126.40;;;16.70;99.00;;;;;;5047464;28;20116;-74
2022/07/11 01:06:21;;;;;;;140.75;127.53;;;16.70;99.10;;;;;;4997640;28;20113;-74
2022/07/11 01:08:48;;;;;;;141.02;127.68;;;16.70;99.30;;;;;;5015038;28;20050;-74
2022/07/11 01:11:17;;;;;;;142.90;129.60;;;16.70;99.10;;;;;;5013635;28;20134;-74
2022/07/11 01:13:44;;;;;;;139.10;125.78;;;16.70;99.30;;;;;;5015183;28;20090;-74
2022/07/11 01:16:13;;;;;;;139.50;126.03;;;16.60;99.30;;;;;;5046780;28;20137;-74
2022/07/11 01:18:42;;;;;;;138.63;125.65;;;16.60;99.20;;;;;;5046616;28;20129;-74
2022/07/11 01:21:20;;;;;;;139.80;126.57;;;16.60;99.30;;;;;;5015149;28;20062;-74
2022/07/11 01:23:49;;;;;;;140.05;126.93;;;16.60;99.30;;;;;;5046805;28;20043;-74
2022/07/11 01:26:17;;;;;;;140.52;127.32;;;16.60;99.30;;;;;;4997615;28;20054;-73
2022/07/11 01:28:44;;;;;;;142.32;128.70;;;16.60;99.40;;;;;;4996819;28;20042;-73
2022/07/11 01:31:12;;;;;;;141.00;127.30;;;16.50;99.40;;;;;;5013722;28;20065;-74
2022/07/11 01:33:39;;;;;;;140.68;127.13;;;16.50;99.60;;;;;;5013888;28;20050;-73
2022/07/11 01:36:07;;;;;;;140.48;126.97;;;16.50;99.50;;;;;;5045538;28;20054;-74
2022/07/11 01:38:34;;;;;;;139.43;125.65;;;16.50;99.40;;;;;;5014643;28;20043;-74
2022/07/11 01:41:02;;;;;;;142.70;128.70;;;16.50;99.40;;;;;;5013359;28;20142;-73
2022/07/11 01:43:29;;;;;;;137.15;124.10;;;16.50;99.50;;;;;;5013919;28;20046;-74
2022/07/11 01:45:56;;;;;;;136.80;123.70;;;16.50;99.50;;;;;;5013571;28;20050;-74
2022/07/11 01:48:24;;;;;;;138.52;124.82;;;16.40;99.50;;;;;;5012792;28;20133;-74
2022/07/11 01:50:51;;;;;;;137.82;124.35;;;16.40;99.60;;;;;;5013236;28;20046;-74
2022/07/11 01:53:18;;;;;;;139.60;125.95;;;16.30;99.50;;;;;;5013318;28;20054;-74
2022/07/11 01:55:45;;;;;;;139.10;125.75;;;16.30;99.60;;;;;;5013164;28;20168;-73
2022/07/11 01:58:13;;;;;;;138.38;124.78;;;16.30;99.60;;;;;;5012772;28;20045;-74
2022/07/11 02:00:40;;;;;;;138.23;124.93;;;16.30;99.70;;;;;;5012933;28;20137;-74
2022/07/11 02:03:07;;;;;;;138.55;125.03;;;16.30;99.70;;;;;;5013469;28;20085;-74
2022/07/11 02:05:34;;;;;;;139.13;125.80;;;16.20;99.70;;;;;;5013034;28;20073;-73
2022/07/11 02:08:13;;;;;;;140.73;126.70;;;16.20;99.70;;;;;;5012942;28;20058;-74
2022/07/11 02:10:41;;;;;;;139.40;125.88;;;16.30;99.60;;;;;;5014453;28;20512;-74
2022/07/11 02:13:09;;;;;;;138.80;125.30;;;16.20;99.60;;;;;;5014483;28;20136;-74
2022/07/11 02:15:38;;;;;;;141.65;127.65;;;16.20;99.70;;;;;;5012732;28;20058;-74
2022/07/11 02:18:06;;;;;;;142.27;128.43;;;16.20;99.80;;;;;;5013256;28;20054;-74
2022/07/11 02:20:33;;;;;;;138.57;125.18;;;16.20;99.80;;;;;;5014270;28;20053;-74
2022/07/11 02:23:00;;;;;;;143.30;129.20;;;16.20;99.80;;;;;;5014892;28;20058;-74
2022/07/11 02:25:27;;;;;;;140.68;126.82;;;16.20;99.90;;;;;;5013760;28;20082;-74
2022/07/11 02:27:54;;;;;;;138.20;124.78;;;16.20;99.90;;;;;;5013309;28;20081;-74
2022/07/11 02:30:21;;;;;;;140.40;126.45;;;16.20;99.90;;;;;;4996316;28;20054;-74
2022/07/11 02:32:50;;;;;;;141.98;127.88;;;16.20;99.80;;;;;;5013554;28;20061;-73
2022/07/11 02:35:17;;;;;;;140.73;126.63;;;16.20;99.80;;;;;;5012703;28;20050;-73
2022/07/11 02:37:43;;;;;;;139.27;125.55;;;16.20;99.80;;;;;;5012692;28;20479;-74
2022/07/11 02:40:11;;;;;;;141.77;127.68;;;16.20;99.80;;;;;;5012789;28;20054;-73
2022/07/11 02:42:38;;;;;;;141.38;127.25;;;16.30;99.80;;;;;;5012876;28;20153;-73
2022/07/11 02:45:07;;;;;;;140.93;127.07;;;16.30;99.80;;;;;;5012830;28;20074;-74
2022/07/11 02:47:36;;;;;;;141.93;127.72;;;16.30;99.90;;;;;;5013370;28;20054;-74
2022/07/11 02:50:06;;;;;;;137.07;123.75;;;16.30;99.80;;;;;;5012504;28;20061;-73
2022/07/11 02:52:33;;;;;;;138.73;125.25;;;16.30;99.90;;;;;;5012612;28;20137;-74
2022/07/11 02:54:59;;;;;;;137.27;123.78;;;16.30;99.90;;;;;;5013483;28;20145;-74
2022/07/11 02:57:26;;;;;;;137.57;124.18;;;16.20;99.90;;;;;;5011836;28;20547;-74
2022/07/11 02:59:53;;;;;;;134.93;121.82;;;16.20;99.90;;;;;;5012294;28;20050;-73
2022/07/11 03:02:20;;;;;;;138.35;124.75;;;16.20;99.90;;;;;;5013374;28;20054;-73
2022/07/11 03:04:47;;;;;;;137.43;123.97;;;16.10;99.90;;;;;;5011634;28;20068;-74
2022/07/11 03:07:16;;;;;;;138.32;124.85;;;16.10;99.90;;;;;;5011672;28;20485;-73
2022/07/11 03:09:43;;;;;;;137.27;123.78;;;16.10;99.90;;;;;;5013527;28;20046;-73
2022/07/11 03:12:10;;;;;;;137.48;124.18;;;16.10;99.90;;;;;;5011949;28;20047;-74
2022/07/11 03:14:37;;;;;;;137.35;124.03;;;16.10;99.90;;;;;;5012286;28;20146;-73
2022/07/11 03:17:04;;;;;;;139.82;126.20;;;16.10;99.90;;;;;;5012905;28;20137;-73
2022/07/11 03:19:31;;;;;;;136.43;122.97;;;16.10;99.90;;;;;;5012150;28;20141;-73
2022/07/11 03:21:58;;;;;;;138.85;125.05;;;16.10;99.90;;;;;;5012622;28;20076;-73
2022/07/11 03:24:26;;;;;;;138.68;125.22;;;16.10;99.90;;;;;;5012036;28;20501;-74
2022/07/11 03:26:53;;;;;;;137.45;123.90;;;16.10;99.90;;;;;;5011645;28;20118;-74
2022/07/11 03:29:20;;;;;;;135.32;122.15;;;16.20;99.90;;;;;;5011201;28;20051;-73
2022/07/11 03:31:47;;;;;;;135.43;122.20;;;16.10;99.90;;;;;;5012924;28;20145;-74
2022/07/11 03:34:14;;;;;;;138.55;125.15;;;16.10;99.90;;;;;;5044485;28;20147;-74
2022/07/11 03:36:41;;;;;;;138.77;124.55;;;16.10;99.90;;;;;;5012851;28;20141;-73
2022/07/11 03:39:08;;;;;;;136.07;122.50;;;16.10;99.90;;;;;;5011567;28;20061;-73
2022/07/11 03:41:36;;;;;;;141.80;127.35;;;16.10;99.90;;;;;;5012782;28;20054;-74
2022/07/11 03:44:03;;;;;;;142.35;128.02;;;16.10;99.90;;;;;;5011177;28;20484;-74
2022/07/11 03:46:30;;;;;;;141.20;126.88;;;16.10;99.90;;;;;;5012998;28;20054;-74
2022/07/11 03:48:57;;;;;;;138.75;124.95;;;16.10;99.90;;;;;;5011120;28;20050;-73
2022/07/11 03:51:24;;;;;;;135.55;122.30;;;16.10;99.90;;;;;;5011487;28;20046;-74
2022/07/11 03:53:51;;;;;;;137.18;123.90;;;16.10;99.90;;;;;;5011539;28;20054;-74
2022/07/11 03:56:22;;;;;;;137.90;124.30;;;16.10;99.90;;;;;;5012615;28;20056;-73
2022/07/11 03:58:50;;;;;;;139.80;126.00;;;16.10;99.90;;;;;;5044608;28;20055;-74
2022/07/11 04:01:18;;;;;;;137.82;124.32;;;16.10;99.90;;;;;;5016301;28;20050;-74
2022/07/11 04:03:45;;;;;;;138.32;125.00;;;16.10;99.90;;;;;;5016553;28;20060;-73
2022/07/11 04:06:12;;;;;;;137.32;123.95;;;16.10;99.90;;;;;;5016095;28;20133;-73
2022/07/11 04:08:39;;;;;;;136.77;123.10;;;16.10;99.90;;;;;;5015861;28;20065;-73
2022/07/11 04:11:06;;;;;;;136.75;123.45;;;16.10;99.90;;;;;;5016174;28;20098;-73
2022/07/11 04:13:33;;;;;;;136.93;123.60;;;16.10;99.90;;;;;;5015976;28;20054;-73
2022/07/11 04:16:02;;;;;;;138.65;125.10;;;16.10;99.90;;;;;;5016000;28;20506;-74
2022/07/11 04:18:29;;;;;;;140.00;126.22;;;16.10;99.90;;;;;;5014687;28;20137;-73
2022/07/11 04:20:55;;;;;;;141.10;127.00;;;16.00;99.90;;;;;;5014998;28;20482;-74
2022/07/11 04:23:22;;;;;;;140.35;126.75;;;16.10;99.90;;;;;;5015936;28;20058;-74
2022/07/11 04:26:15;;;;;;;140.88;127.28;;;16.10;99.90;;;;;;5014494;28;20129;-74
2022/07/11 04:28:42;;;;;;;139.05;125.38;;;16.10;99.90;;;;;;5014382;28;20058;-74
2022/07/11 04:31:11;;;;;;;138.25;124.82;;;16.10;99.90;;;;;;5015764;28;20149;-73
2022/07/11 04:33:38;;;;;;;138.02;124.28;;;16.10;99.90;;;;;;5014701;28;20608;-73
2022/07/11 04:36:05;;;;;;;139.18;125.65;;;16.10;99.90;;;;;;5014308;28;20141;-74
2022/07/11 04:38:32;;;;;;;141.02;127.25;;;16.20;99.90;;;;;;5014346;28;20062;-74
2022/07/11 04:40:59;;;;;;;140.07;126.45;;;16.20;99.90;;;;;;5015761;28;20181;-74
2022/07/11 04:43:26;;;;;;;142.43;128.55;;;16.20;99.90;;;;;;5015729;28;20129;-74
2022/07/11 04:45:53;;;;;;;140.90;127.07;;;16.20;99.90;;;;;;5015531;28;20109;-74
2022/07/11 04:48:21;;;;;;;139.52;125.88;;;16.10;99.90;;;;;;5015740;28;20141;-74
2022/07/11 04:50:48;;;;;;;139.25;125.65;;;16.10;99.90;;;;;;5015538;28;20485;-74
2022/07/11 04:53:15;;;;;;;141.77;127.93;;;16.20;99.90;;;;;;5014315;28;20138;-74
2022/07/11 04:55:42;;;;;;;142.77;128.82;;;16.20;99.90;;;;;;5015602;28;20046;-74
2022/07/11 04:58:09;;;;;;;142.38;128.70;;;16.20;99.90;;;;;;5015018;28;20058;-74
2022/07/11 05:00:36;;;;;;;139.40;125.68;;;16.20;99.90;;;;;;5014100;28;20054;-74
2022/07/11 05:03:04;;;;;;;139.98;125.85;;;16.20;99.90;;;;;;5014540;28;20057;-74
2022/07/11 05:05:33;;;;;;;144.82;130.40;;;16.20;99.90;;;;;;5014766;28;20069;-73
2022/07/11 05:08:00;;;;;;;137.48;124.00;;;16.30;99.90;;;;;;5013727;28;20138;-74
2022/07/11 05:10:27;;;;;;;138.02;124.32;;;16.30;99.90;;;;;;5015062;28;20061;-74
2022/07/11 05:12:54;;;;;;;139.43;125.15;;;16.20;99.90;;;;;;5013879;28;20145;-74
2022/07/11 05:15:22;;;;;;;138.98;125.28;;;16.20;99.90;;;;;;5047184;28;20546;-74
2022/07/11 05:17:49;;;;;;;145.20;130.70;;;16.20;99.90;;;;;;5013458;28;20059;-74
2022/07/11 05:20:16;;;;;;;143.27;129.20;;;16.30;99.90;;;;;;5030638;28;20058;-74
2022/07/11 05:22:44;;;;;;;145.52;131.38;;;16.30;99.90;;;;;;5047108;28;20050;-74
2022/07/11 05:25:11;;;;;;;143.95;129.82;;;16.30;99.90;;;;;;5015236;28;20054;-74
2022/07/11 05:27:38;;;;;;;154.00;138.27;;;16.30;99.90;;;;;;5013440;28;20061;-74
2022/07/11 05:30:06;;;;;;;150.07;134.90;;;16.30;99.90;;;;;;5014809;28;20186;-74
2022/07/11 05:32:34;;;;;;;144.80;130.27;;;16.30;99.90;;;;;;5014097;28;20054;-74
2022/07/11 05:35:02;;;;;;;147.40;132.45;;;16.30;99.90;;;;;;5013733;28;20053;-74
2022/07/11 05:37:29;;;;;;;141.05;127.28;;;16.30;99.90;;;;;;5013190;28;20085;-74
2022/07/11 05:39:57;;;;;;;138.57;125.18;;;16.30;99.90;;;;;;5015195;28;20125;-74
2022/07/11 05:42:24;;;;;;;138.15;124.53;;;16.30;99.90;;;;;;5015264;28;20501;-74
2022/07/11 05:44:51;;;;;;;137.93;124.15;;;16.40;99.90;;;;;;5014797;28;20512;-74
2022/07/11 05:47:18;;;;;;;143.40;129.10;;;16.30;99.90;;;;;;5013056;28;20051;-74
2022/07/11 05:49:45;;;;;;;148.25;132.95;;;16.30;99.90;;;;;;4996631;28;20050;-74
2022/07/11 05:52:12;;;;;;;152.07;136.38;;;16.40;99.90;;;;;;5014262;28;20061;-74
2022/07/11 05:54:39;;;;;;;154.23;138.15;;;16.40;99.90;;;;;;5014656;28;20496;-74
2022/07/11 05:57:08;;;;;;;143.18;129.25;;;16.30;99.90;;;;;;5014186;28;20194;-74
2022/07/11 05:59:37;;;;;;;139.10;125.50;;;16.30;99.90;;;;;;5014062;28;20141;-74
2022/07/11 06:02:04;;;;;;;142.85;128.82;;;16.40;99.90;;;;;;5012364;28;20552;-74
2022/07/11 06:04:33;;;;;;;143.32;128.90;;;16.40;99.90;;;;;;5025562;28;20051;-75
2022/07/11 06:07:00;;;;;;;141.73;127.55;;;16.40;99.90;;;;;;5030471;28;20046;-75
2022/07/11 06:09:26;;;;;;;142.52;128.45;;;16.40;99.90;;;;;;5026669;28;20057;-74
2022/07/11 06:11:53;;;;;;;143.30;129.18;;;16.40;99.90;;;;;;5042084;28;20049;-74
2022/07/11 06:14:22;;;;;;;150.35;135.05;;;16.40;99.90;;;;;;5038426;28;20054;-75
2022/07/11 06:16:49;;;;;;;138.18;124.65;;;16.40;99.90;;;;;;5039104;28;20053;-75
2022/07/11 06:19:16;;;;;;;141.25;127.05;;;16.40;99.90;;;;;;5040332;28;20073;-74
2022/07/11 06:21:43;;;;;;;136.70;123.43;;;16.50;99.90;;;;;;5032909;28;20049;-74
2022/07/11 06:24:10;;;;;;;138.73;125.30;;;16.50;99.90;;;;;;5031174;28;20056;-74
2022/07/11 06:26:37;;;;;;;142.70;128.82;;;16.50;99.90;;;;;;5039967;28;20061;-74
2022/07/11 06:29:04;;;;;;;140.48;126.68;;;16.50;99.90;;;;;;5042233;28;20054;-74
2022/07/11 06:31:32;;;;;;;143.20;129.20;;;16.50;99.90;;;;;;5039230;28;20050;-74
2022/07/11 06:33:59;;;;;;;141.13;127.28;;;16.60;99.90;;;;;;5039794;28;20158;-74
2022/07/11 06:36:27;;;;;;;140.48;126.80;;;16.60;99.90;;;;;;5040368;28;20045;-74
2022/07/11 06:38:54;;;;;;;141.57;127.75;;;16.60;99.90;;;;;;5036500;28;20500;-75
2022/07/11 06:41:21;;;;;;;139.85;126.05;;;16.60;99.90;;;;;;5027375;28;20049;-73
2022/07/11 06:43:48;;;;;;;142.05;127.95;;;16.60;99.90;;;;;;5040114;28;20529;-72
2022/07/11 06:46:15;;;;;;;142.60;128.40;;;16.70;99.90;;;;;;5033350;28;20085;-73
2022/07/11 06:48:45;;;;;;;145.63;131.05;;;16.70;99.90;;;;;;5037205;28;20614;-73
2022/07/11 06:51:12;;;;;;;143.70;129.65;;;16.70;99.90;;;;;;5034047;28;20475;-74
2022/07/11 06:53:39;;;;;;;147.73;132.73;;;16.70;99.90;;;;;;5032228;28;20061;-74
2022/07/11 06:56:13;;;;;;;147.27;132.32;;;16.80;99.90;;;;;;5033819;28;20402;-74
2022/07/11 06:58:40;;;;;;;142.82;128.63;;;16.80;99.90;;;;;;5030432;28;20505;-74
2022/07/11 07:01:08;;;;;;;142.90;128.60;;;16.80;99.90;;;;;;5032606;28;20088;-75
2022/07/11 07:03:36;;;;;;;145.20;130.77;;;16.90;99.90;;;;;;5031529;28;20081;-73
2022/07/11 07:06:05;;;;;;;148.52;133.45;;;16.90;99.90;;;;;;5030244;28;20101;-73
2022/07/11 07:08:33;;;;;;;144.68;130.57;;;16.90;99.90;;;;;;5034698;28;20053;-73
2022/07/11 07:11:01;;;;;;;150.52;135.52;;;16.90;99.90;;;;;;5037866;28;20470;-73
2022/07/11 07:13:29;;;;;;;149.80;134.70;;;16.90;99.90;;;;;;5029792;28;20154;-73
2022/07/11 07:15:56;;;;;;;150.63;135.73;;;17.00;99.90;;;;;;5029848;28;20100;-73
2022/07/11 07:18:23;;;;;;;153.48;138.02;;;17.00;99.90;;;;;;5029604;28;20124;-72
2022/07/11 07:20:51;;;;;;;149.38;134.60;;;17.00;99.90;;;;;;5060856;28;20049;-74
2022/07/11 07:23:19;;;;;;;146.52;132.18;;;17.00;99.90;;;;;;5063204;28;20064;-73
2022/07/11 07:25:46;;;;;;;148.98;134.23;;;17.10;99.90;;;;;;5030057;28;20046;-74
2022/07/11 07:28:13;;;;;;;146.43;131.82;;;17.10;99.90;;;;;;5032759;28;20413;-74
2022/07/11 07:30:40;;;;;;;146.60;132.32;;;17.10;99.90;;;;;;5032888;28;20065;-73
2022/07/11 07:33:07;;;;;;;144.27;129.95;;;17.10;99.90;;;;;;5031687;28;20153;-74
2022/07/11 07:35:34;;;;;;;143.82;129.80;;;17.10;99.90;;;;;;5035287;28;20076;-75
2022/07/11 07:38:01;;;;;;;144.90;130.98;;;17.20;99.90;;;;;;5034612;28;20060;-74
2022/07/11 07:40:29;;;;;;;147.90;133.35;;;17.20;99.90;;;;;;5032243;28;20054;-75
2022/07/11 07:42:56;;;;;;;147.13;132.70;;;17.20;99.90;;;;;;5039087;28;20061;-73
2022/07/11 07:45:24;;;;;;;143.95;130.05;;;17.20;99.90;;;;;;5052689;28;20467;-74
2022/07/11 07:47:51;;;;;;;147.57;133.05;;;17.10;99.90;;;;;;5045388;28;20140;-74
2022/07/11 07:50:17;;;;;;;143.18;129.23;;;17.10;99.90;;;;;;5036890;28;20742;-74
2022/07/11 07:52:44;;;;;;;144.48;130.57;;;17.10;99.90;;;;;;5067704;28;20508;-74
2022/07/11 07:55:12;;;;;;;144.82;130.73;;;17.10;99.90;;;;;;5067895;28;20085;-74
2022/07/11 07:57:40;;;;;;;147.13;132.85;;;17.10;99.90;;;;;;5066880;28;20050;-74
2022/07/11 08:02:53;;;;;;;139.88;126.13;;;17.20;99.90;;;;;;5035370;28;20048;-74
2022/07/11 08:05:20;;;;;;;137.82;124.68;;;17.20;99.90;;;;;;5035647;28;20140;-74
2022/07/11 08:07:47;;;;;;;138.25;125.25;;;17.20;99.90;;;;;;5035320;28;20123;-74
2022/07/11 08:10:15;;;;;;;142.00;128.85;;;17.30;99.90;;;;;;5041849;28;20092;-74
2022/07/11 08:12:44;;;;;;;140.18;126.88;;;17.30;99.90;;;;;;5066967;28;20042;-73
2022/07/11 08:15:12;;;;;;;135.57;122.80;;;17.30;99.90;;;;;;5041593;28;20128;-73
2022/07/11 08:17:38;;;;;;;142.50;129.20;;;17.30;99.90;;;;;;5038592;28;20500;-73
2022/07/11 08:20:06;;;;;;;138.82;125.68;;;17.30;99.90;;;;;;5041754;28;20074;-73
2022/07/11 08:22:33;;;;;;;137.85;124.85;;;17.40;99.90;;;;;;5066224;28;20050;-73
2022/07/11 08:25:00;;;;;;;135.98;123.28;;;17.40;99.90;;;;;;5043281;28;20060;-73
2022/07/11 08:27:28;;;;;;;134.25;121.65;;;17.40;99.90;;;;;;5043760;28;20054;-73
2022/07/11 08:29:56;;;;;;;132.80;120.40;;;17.40;99.90;;;;;;5040622;28;20052;-73
2022/07/11 08:32:24;;;;;;;132.43;119.95;;;17.40;99.90;;;;;;5044365;28;20763;-73
2022/07/11 08:34:51;;;;;;;135.80;123.03;;;17.40;99.90;;;;;;5041806;28;20132;-74
2022/07/11 08:37:18;;;;;;;142.30;129.00;;;17.40;99.90;;;;;;5048831;28;20053;-74
2022/07/11 08:39:45;;;;;;;133.43;120.68;;;17.40;99.90;;;;;;5037152;28;20132;-74
2022/07/11 08:42:12;;;;;;;133.57;120.88;;;17.40;99.90;;;;;;5038039;28;20488;-74
2022/07/11 08:44:39;;;;;;;137.30;124.43;;;17.40;99.90;;;;;;5041374;28;20050;-75
2022/07/11 08:47:09;;;;;;;142.13;128.70;;;17.40;99.90;;;;;;5039976;28;20512;-74
2022/07/11 08:49:35;;;;;;;143.63;129.82;;;17.50;99.90;;;;;;5040005;28;20077;-73
2022/07/11 08:52:04;;;;;;;146.07;132.18;;;17.50;99.90;;;;;;5040652;28;20045;-73
2022/07/11 08:54:31;;;;;;;147.38;133.18;;;17.50;99.90;;;;;;5030841;28;20058;-73
2022/07/11 08:56:59;;;;;;;149.77;135.68;;;17.50;99.90;;;;;;5033966;28;20061;-74
2022/07/11 08:59:28;;;;;;;141.00;127.90;;;17.60;99.90;;;;;;5051916;28;20141;-74
2022/07/11 09:01:58;;;;;;;135.75;122.97;;;17.60;99.90;;;;;;5053654;28;20046;-73
2022/07/11 09:04:28;;;;;;;140.50;127.70;;;17.70;99.90;;;;;;5053482;28;20052;-74
2022/07/11 09:06:55;;;;;;;141.20;128.10;;;17.70;99.90;;;;;;5048616;28;20093;-74
2022/07/11 09:09:21;;;;;;;138.98;125.97;;;17.80;99.90;;;;;;5016970;28;20049;-74
2022/07/11 09:11:51;;;;;;;138.68;125.68;;;17.80;99.90;;;;;;5046825;28;20045;-73
2022/07/11 09:14:25;;;;;;;137.35;124.25;;;17.90;99.90;;;;;;5047430;28;20046;-73
2022/07/11 09:16:57;;;;;;;139.63;126.30;;;17.90;99.90;;;;;;5043587;28;20818;-73
2022/07/11 09:19:26;;;;;;;138.73;125.55;;;18.00;99.90;;;;;;5066377;28;20046;-73
2022/07/11 09:27:41;;;;;;;142.35;128.77;;;18.20;99.90;;;;;;5036458;28;20064;-73
2022/07/11 09:30:17;;;;;;;143.50;129.93;;;18.20;99.90;;;;;;5054421;28;20097;-73
2022/07/11 09:32:54;;;;;;;142.50;128.90;;;18.20;99.90;;;;;;5053607;28;20049;-74
2022/07/11 09:35:27;;;;;;;142.30;128.80;;;18.20;99.80;;;;;;5036585;28;20056;-73
2022/07/11 09:37:56;;;;;;;153.23;139.20;;;18.30;99.80;;;;;;5052936;28;20154;-73
2022/07/11 09:40:23;;;;;;;150.38;135.93;;;18.30;99.70;;;;;;5053074;28;20056;-73
2022/07/11 09:42:51;;;;;;;148.90;134.50;;;18.30;99.70;;;;;;5053346;28;20050;-74
2022/07/11 09:45:19;;;;;;;150.52;136.02;;;18.30;99.60;;;;;;5049820;28;20054;-73
2022/07/11 09:47:47;;;;;;;147.52;133.23;;;18.30;99.50;;;;;;5033470;28;20042;-74
2022/07/11 09:50:18;;;;;;;152.73;137.93;;;18.30;99.40;;;;;;5040300;28;20060;-73
2022/07/11 09:53:01;;;;;;;153.93;138.88;;;18.40;99.40;;;;;;5052751;28;20049;-73
2022/07/11 09:55:29;;;;;;;151.90;137.05;;;18.40;99.30;;;;;;5041872;28;20050;-73
2022/07/11 09:57:56;;;;;;;154.90;139.82;;;18.50;99.30;;;;;;5045023;28;20539;-73
2022/07/11 10:00:23;;;;;;;204.00;183.75;;;18.50;99.30;;;;;;5033449;28;20478;-73
2022/07/11 10:02:52;;;;;;;151.52;137.00;;;18.50;99.20;;;;;;5033211;28;20053;-73
2022/07/11 10:05:19;;;;;;;151.23;136.93;;;18.50;99.20;;;;;;5031431;28;20136;-73
2022/07/11 10:07:46;;;;;;;149.25;135.25;;;18.50;99.20;;;;;;5032142;28;20056;-74
2022/07/11 10:10:14;;;;;;;147.18;133.00;;;18.50;99.40;;;;;;5032274;28;20042;-73
2022/07/11 10:12:42;;;;;;;146.73;132.40;;;18.60;99.50;;;;;;5032294;28;20112;-73
2022/07/11 10:15:11;;;;;;;147.68;133.27;;;18.60;99.50;;;;;;5041111;28;20136;-73
2022/07/11 10:17:47;;;;;;;148.40;133.80;;;18.60;99.50;;;;;;5055826;28;20125;-74
2022/07/11 10:20:21;;;;;;;154.52;138.93;;;18.70;99.60;;;;;;5037771;28;20503;-74
2022/07/11 10:22:56;;;;;;;141.73;128.18;;;18.70;99.30;;;;;;5049551;28;20448;-74
2022/07/11 10:25:32;;;;;;;144.65;130.73;;;18.70;99.30;;;;;;5065612;28;20077;-73
2022/07/11 10:28:21;;;;;;;151.48;136.80;;;18.80;99.30;;;;;;5042044;28;20105;-74
2022/07/11 10:30:50;;;;;;;153.27;138.35;;;18.80;99.20;;;;;;5067223;28;20132;-74
2022/07/11 10:33:18;;;;;;;174.85;157.35;;;18.80;99.10;;;;;;5040375;28;20047;-75
2022/07/11 10:35:46;;;;;;;154.98;140.07;;;18.80;99.00;;;;;;5043047;28;20085;-74
2022/07/11 10:38:14;;;;;;;149.55;135.25;;;18.80;98.90;;;;;;5051736;28;20136;-75
2022/07/11 10:40:51;;;;;;;148.90;134.70;;;18.90;98.90;;;;;;5052287;28;20055;-72
2022/07/11 10:43:35;;;;;;;149.25;135.07;;;18.90;98.90;;;;;;5030834;28;20125;-72
2022/07/11 10:46:04;;;;;;;143.90;130.18;;;18.90;98.80;;;;;;5032343;28;20054;-72
2022/07/11 10:48:33;;;;;;;146.32;132.68;;;19.00;98.90;;;;;;5034448;28;20049;-71
2022/07/11 10:51:06;;;;;;;147.07;133.48;;;19.00;98.80;;;;;;5045433;28;20053;-71
2022/07/11 10:53:34;;;;;;;148.63;135.05;;;19.00;98.80;;;;;;5040327;28;20523;-72
2022/07/11 10:56:15;;;;;;;143.55;130.45;;;19.00;98.70;;;;;;5030795;28;20081;-72
2022/07/11 10:58:43;;;;;;;145.27;131.82;;;19.00;98.70;;;;;;5033512;28;20054;-72
2022/07/11 11:01:12;;;;;;;148.95;135.32;;;19.10;98.70;;;;;;5028619;28;20046;-72
2022/07/11 11:03:40;;;;;;;147.32;133.82;;;19.10;98.70;;;;;;5028883;28;20050;-73
2022/07/11 11:06:07;;;;;;;145.60;132.25;;;19.10;98.60;;;;;;5031777;28;20053;-73
2022/07/11 11:08:48;;;;;;;146.00;132.43;;;19.10;98.40;;;;;;5030227;28;20057;-73
2022/07/11 11:11:47;;;;;;;138.82;126.35;;;19.10;98.40;;;;;;5029142;28;20177;-73
2022/07/11 11:14:28;;;;;;;140.10;127.30;;;19.10;98.30;;;;;;5028989;28;20504;-73
2022/07/11 11:16:56;;;;;;;139.90;127.25;;;19.20;98.40;;;;;;5041860;28;20076;-72
2022/07/11 11:19:55;;;;;;;141.35;128.65;;;19.20;98.40;;;;;;5042111;28;20058;-72
2022/07/11 11:22:24;;;;;;;141.35;128.52;;;19.20;98.30;;;;;;5046253;28;20053;-72
2022/07/11 11:24:53;;;;;;;141.05;128.45;;;19.20;98.20;;;;;;5043608;28;20726;-72
2022/07/11 11:27:22;;;;;;;141.45;128.75;;;19.20;98.20;;;;;;5048999;28;20137;-72
2022/07/11 11:29:51;;;;;;;142.05;129.25;;;19.20;98.20;;;;;;5049280;28;20057;-72
2022/07/11 11:32:20;;;;;;;141.10;128.23;;;19.20;98.10;;;;;;5015282;28;20141;-72
2022/07/11 11:34:47;;;;;;;143.98;130.98;;;19.20;98.20;;;;;;5032131;28;20373;-72
2022/07/11 11:37:17;;;;;;;147.40;134.20;;;19.30;98.20;;;;;;5032502;28;20050;-72
2022/07/11 11:39:45;;;;;;;148.73;135.23;;;19.30;98.20;;;;;;5034711;28;20053;-72
2022/07/11 11:42:16;;;;;;;149.32;135.77;;;19.30;98.30;;;;;;5030473;28;20050;-72
2022/07/11 11:44:53;;;;;;;151.23;137.38;;;19.30;98.40;;;;;;5031561;28;20408;-72
2022/07/11 11:47:20;;;;;;;160.00;145.15;;;19.40;98.40;;;;;;5061919;28;20046;-72
2022/07/11 11:49:49;;;;;;;156.93;142.52;;;19.40;98.40;;;;;;5032320;28;20089;-72
2022/07/11 11:52:16;;;;;;;154.93;140.52;;;19.40;98.40;;;;;;5030885;28;20046;-73
2022/07/11 11:54:45;;;;;;;149.88;136.38;;;19.40;98.40;;;;;;5030724;28;20141;-72
2022/07/11 11:57:12;;;;;;;152.10;138.43;;;19.50;98.30;;;;;;5062177;28;20057;-72
2022/07/11 11:59:40;;;;;;;152.52;138.48;;;19.50;98.30;;;;;;5030199;28;20056;-72
2022/07/11 12:02:10;;;;;;;148.98;135.48;;;19.50;98.20;;;;;;5035884;28;20138;-73
2022/07/11 12:04:37;;;;;;;153.27;139.68;;;19.60;98.10;;;;;;5029743;28;20804;-73
2022/07/11 12:07:05;;;;;;;155.20;141.35;;;19.60;98.00;;;;;;5040414;28;20042;-73
2022/07/11 12:09:48;;;;;;;159.05;144.65;;;19.70;97.90;;;;;;5037931;28;20042;-73
2022/07/11 12:15:06;;;;;;;145.90;132.85;;;19.70;97.90;;;;;;5038129;28;20042;-73
2022/07/11 12:17:36;;;;;;;147.52;134.52;;;19.80;98.00;;;;;;5039978;28;20076;-73
2022/07/11 12:20:04;;;;;;;150.27;136.98;;;19.80;98.00;;;;;;5040013;28;20064;-72
2022/07/11 12:22:40;;;;;;;149.77;136.57;;;19.80;98.00;;;;;;5044640;28;20062;-73
2022/07/11 12:25:11;;;;;;;151.07;137.82;;;19.80;98.00;;;;;;5041796;28;20052;-73
2022/07/11 12:27:37;;;;;;;150.98;137.68;;;19.90;97.90;;;;;;5043805;28;20501;-73